Time;durP1;ratioP1;P1;durP2;ratioP2;P2;SDS_P1;SDS_P2;PMS_P1;PMS_P2;Temp;Humidity;BMP_temperature;BMP_pressure;BME280_temperature;BME280_humidity;BME280_pressure;Samples;Min_cycle;Max_cycle;Signal;HPM_P1;HPM_P2
2023/09/20 00:01:24;;;;;;;12.05;5.43;;;16.20;99.90;;;;;;5065018;28;20402;-82
2023/09/20 00:03:50;;;;;;;9.88;5.13;;;16.20;99.90;;;;;;5066202;28;20082;-81
2023/09/20 00:06:17;;;;;;;11.60;5.25;;;16.20;99.90;;;;;;5078122;28;20502;-81
2023/09/20 00:08:43;;;;;;;11.05;5.50;;;16.20;99.90;;;;;;5071981;28;20041;-82
2023/09/20 00:11:15;;;;;;;12.65;5.65;;;16.20;99.90;;;;;;5055438;28;20032;-82
2023/09/20 00:13:41;;;;;;;12.65;5.78;;;16.20;99.90;;;;;;5074889;28;20058;-82
2023/09/20 00:16:07;;;;;;;12.27;4.93;;;16.20;99.90;;;;;;5067021;28;20048;-84
2023/09/20 00:18:34;;;;;;;10.32;4.90;;;16.20;99.90;;;;;;5089793;28;20043;-82
2023/09/20 00:21:01;;;;;;;11.60;4.78;;;16.30;99.90;;;;;;5077200;28;20068;-82
2023/09/20 00:23:27;;;;;;;11.13;5.18;;;16.30;99.90;;;;;;5050545;28;20124;-81
2023/09/20 00:25:53;;;;;;;11.38;5.00;;;16.30;99.90;;;;;;5066622;28;20028;-82
2023/09/20 00:28:19;;;;;;;12.90;5.15;;;16.30;99.90;;;;;;5051513;28;20140;-82
2023/09/20 00:30:45;;;;;;;13.20;5.68;;;16.30;99.90;;;;;;5061160;28;20048;-81
2023/09/20 00:33:11;;;;;;;9.93;5.20;;;16.30;99.90;;;;;;5069160;28;20116;-81
2023/09/20 00:35:40;;;;;;;10.95;4.80;;;16.30;99.90;;;;;;5079379;28;20040;-81
2023/09/20 00:38:06;;;;;;;11.30;4.75;;;16.30;99.90;;;;;;5055073;28;20441;-82
2023/09/20 00:40:33;;;;;;;11.40;5.15;;;16.30;99.90;;;;;;5070381;28;20157;-81
2023/09/20 00:42:59;;;;;;;10.38;4.80;;;16.30;99.90;;;;;;5083824;28;20067;-82
2023/09/20 00:45:25;;;;;;;11.05;5.28;;;16.30;99.90;;;;;;5053750;28;20033;-81
2023/09/20 00:47:56;;;;;;;11.73;4.90;;;16.40;99.90;;;;;;5091763;28;20036;-81
2023/09/20 00:50:26;;;;;;;10.18;5.05;;;16.30;99.90;;;;;;5091804;28;20048;-82
2023/09/20 00:52:54;;;;;;;11.57;5.05;;;16.30;99.90;;;;;;5070343;28;20036;-83
2023/09/20 00:55:23;;;;;;;10.13;4.68;;;16.30;99.90;;;;;;5060740;28;20127;-83
2023/09/20 00:57:53;;;;;;;10.85;4.90;;;16.40;99.90;;;;;;5072703;28;20521;-82
2023/09/20 01:00:22;;;;;;;9.23;4.70;;;16.40;99.90;;;;;;5060975;28;20068;-82
2023/09/20 01:02:59;;;;;;;11.18;5.25;;;16.40;99.90;;;;;;5052392;28;20127;-81
2023/09/20 01:05:28;;;;;;;13.48;4.68;;;16.40;99.90;;;;;;5078777;28;20383;-82
2023/09/20 01:07:55;;;;;;;10.25;4.60;;;16.40;99.90;;;;;;5074279;28;20040;-82
2023/09/20 01:10:23;;;;;;;9.70;4.65;;;16.40;99.90;;;;;;5074457;28;20040;-83
2023/09/20 01:12:56;;;;;;;11.50;4.78;;;16.40;99.90;;;;;;5049456;28;20036;-82
2023/09/20 01:15:22;;;;;;;11.98;4.80;;;16.40;99.90;;;;;;5076787;28;20044;-82
2023/09/20 01:17:50;;;;;;;10.40;4.20;;;16.40;99.90;;;;;;5054623;28;20048;-82
2023/09/20 01:20:19;;;;;;;13.45;4.95;;;16.40;99.90;;;;;;5054484;28;20423;-82
2023/09/20 01:22:47;;;;;;;11.20;4.40;;;16.50;99.90;;;;;;5077750;28;20032;-82
2023/09/20 01:25:24;;;;;;;14.98;4.63;;;16.50;99.90;;;;;;5065322;28;20498;-81
2023/09/20 01:27:56;;;;;;;8.57;4.70;;;16.50;99.90;;;;;;5064346;28;20511;-83
2023/09/20 01:30:25;;;;;;;12.15;5.70;;;16.50;99.90;;;;;;5062155;28;20028;-82
2023/09/20 01:32:53;;;;;;;10.75;4.40;;;16.40;99.90;;;;;;5074988;28;20036;-83
2023/09/20 01:35:19;;;;;;;7.28;3.90;;;16.40;99.90;;;;;;5059994;28;20046;-82
2023/09/20 01:37:45;;;;;;;11.40;4.50;;;16.50;99.90;;;;;;5090886;28;20040;-82
2023/09/20 01:40:18;;;;;;;11.00;4.55;;;16.50;99.90;;;;;;5090768;28;20040;-83
2023/09/20 01:42:48;;;;;;;14.52;4.90;;;16.50;99.90;;;;;;5050633;28;20478;-83
2023/09/20 01:45:20;;;;;;;8.13;4.15;;;16.40;99.90;;;;;;5061908;28;20036;-83
2023/09/20 01:47:51;;;;;;;13.38;4.35;;;16.40;99.90;;;;;;5053062;28;20043;-85
2023/09/20 01:50:20;;;;;;;9.07;3.83;;;16.40;99.90;;;;;;5070362;28;20525;-81
2023/09/20 01:53:08;;;;;;;9.82;4.47;;;16.40;99.90;;;;;;5072650;28;20025;-83
2023/09/20 01:55:36;;;;;;;10.93;4.68;;;16.50;99.90;;;;;;5073786;28;20436;-82
2023/09/20 01:58:05;;;;;;;9.38;4.43;;;16.50;99.90;;;;;;5053608;28;20098;-82
2023/09/20 02:00:40;;;;;;;9.73;4.55;;;16.50;99.90;;;;;;5052977;28;20036;-82
2023/09/20 02:03:19;;;;;;;12.85;3.97;;;16.40;99.90;;;;;;5057448;28;20495;-82
2023/09/20 02:05:47;;;;;;;8.25;4.00;;;16.50;99.90;;;;;;5033646;28;20048;-83
2023/09/20 02:08:13;;;;;;;10.38;4.22;;;16.50;99.90;;;;;;5049972;28;20036;-81
2023/09/20 02:10:39;;;;;;;11.82;4.10;;;16.50;99.90;;;;;;5051218;28;20089;-82
2023/09/20 02:13:06;;;;;;;10.68;4.00;;;16.60;99.90;;;;;;5061862;28;20036;-82
2023/09/20 02:15:36;;;;;;;10.80;3.83;;;16.50;99.90;;;;;;5072407;28;20044;-81
2023/09/20 02:18:06;;;;;;;11.07;4.30;;;16.60;99.90;;;;;;5040016;28;20116;-82
2023/09/20 02:20:36;;;;;;;8.98;3.70;;;16.50;99.90;;;;;;5050278;28;20121;-81
2023/09/20 02:23:03;;;;;;;11.35;4.75;;;16.60;99.90;;;;;;5056948;28;20044;-82
2023/09/20 02:25:29;;;;;;;10.70;4.75;;;16.60;99.90;;;;;;5062862;28;20044;-82
2023/09/20 02:27:59;;;;;;;9.77;3.97;;;16.60;99.90;;;;;;5063216;28;20064;-81
2023/09/20 02:30:31;;;;;;;10.02;4.55;;;16.60;99.90;;;;;;5074708;28;20043;-81
2023/09/20 02:33:00;;;;;;;12.90;4.28;;;16.60;99.90;;;;;;5056029;28;20040;-82
2023/09/20 02:35:26;;;;;;;9.27;4.32;;;16.60;99.90;;;;;;5088108;28;20040;-83
2023/09/20 02:37:53;;;;;;;10.07;4.10;;;16.60;99.90;;;;;;5066034;28;20039;-83
2023/09/20 02:40:18;;;;;;;9.88;4.40;;;16.60;99.90;;;;;;5037230;28;20404;-83
2023/09/20 02:42:51;;;;;;;12.13;4.60;;;16.50;99.90;;;;;;5075186;28;20044;-82
2023/09/20 02:45:22;;;;;;;9.43;4.60;;;16.50;99.90;;;;;;5055888;28;20040;-82
2023/09/20 02:47:48;;;;;;;10.98;4.30;;;16.50;99.90;;;;;;5053321;28;20545;-82
2023/09/20 02:50:16;;;;;;;9.95;4.40;;;16.50;99.90;;;;;;5056008;28;20048;-83
2023/09/20 02:52:43;;;;;;;10.43;4.50;;;16.60;99.90;;;;;;5056637;28;20036;-82
2023/09/20 02:55:12;;;;;;;13.60;4.88;;;16.50;99.90;;;;;;5078360;28;20044;-83
2023/09/20 02:57:39;;;;;;;9.75;4.90;;;16.50;99.90;;;;;;5056793;28;20105;-80
2023/09/20 03:00:15;;;;;;;10.00;4.72;;;16.60;99.90;;;;;;5063218;28;20120;-80
2023/09/20 03:02:49;;;;;;;11.13;4.60;;;16.50;99.90;;;;;;5060995;28;20084;-82
2023/09/20 03:05:24;;;;;;;10.90;4.38;;;16.50;99.90;;;;;;5059729;28;20326;-82
2023/09/20 03:07:51;;;;;;;10.98;4.43;;;16.50;99.90;;;;;;5064555;28;20131;-81
2023/09/20 03:10:21;;;;;;;9.95;4.32;;;16.50;99.90;;;;;;5048343;28;20384;-81
2023/09/20 03:12:51;;;;;;;13.02;5.20;;;16.50;99.90;;;;;;5061386;28;20116;-82
2023/09/20 03:15:22;;;;;;;9.73;4.97;;;16.50;99.90;;;;;;5070779;28;20043;-82
2023/09/20 03:17:51;;;;;;;10.00;4.35;;;16.40;99.90;;;;;;5076615;28;20165;-83
2023/09/20 03:20:22;;;;;;;10.70;4.35;;;16.40;99.90;;;;;;5067881;28;20100;-82
2023/09/20 03:22:49;;;;;;;9.65;4.57;;;16.40;99.90;;;;;;5040768;28;20072;-83
2023/09/20 03:25:22;;;;;;;12.70;4.72;;;16.30;99.90;;;;;;5061173;28;20036;-84
2023/09/20 03:27:48;;;;;;;11.18;5.00;;;16.30;99.90;;;;;;5076566;28;20067;-82
2023/09/20 03:30:16;;;;;;;11.30;4.60;;;16.20;99.90;;;;;;5093154;28;20047;-81
2023/09/20 03:32:44;;;;;;;13.02;4.80;;;16.20;99.90;;;;;;5057346;28;20041;-84
2023/09/20 03:35:12;;;;;;;9.73;4.57;;;16.20;99.90;;;;;;5059810;28;20044;-81
2023/09/20 03:37:41;;;;;;;10.77;4.72;;;16.10;99.90;;;;;;5067629;28;20088;-82
2023/09/20 03:40:17;;;;;;;14.60;5.43;;;16.10;99.90;;;;;;5076053;28;20078;-82
2023/09/20 03:42:43;;;;;;;10.48;5.00;;;16.00;99.90;;;;;;5058486;28;20032;-81
2023/09/20 03:45:10;;;;;;;11.15;5.13;;;16.00;99.90;;;;;;5063584;28;20048;-82
2023/09/20 03:47:53;;;;;;;10.05;4.95;;;15.90;99.90;;;;;;5067171;28;20035;-83
2023/09/20 03:50:19;;;;;;;12.68;5.25;;;15.90;99.90;;;;;;5059320;28;20067;-82
2023/09/20 03:52:45;;;;;;;10.38;5.15;;;15.80;99.90;;;;;;5074273;28;20067;-82
2023/09/20 03:55:11;;;;;;;11.80;5.13;;;15.70;99.90;;;;;;5063889;28;20042;-81
2023/09/20 03:57:38;;;;;;;11.05;5.30;;;15.70;99.90;;;;;;5060381;28;20036;-83
2023/09/20 04:00:11;;;;;;;7.70;4.47;;;15.70;99.90;;;;;;5054161;28;20048;-83
2023/09/20 04:02:37;;;;;;;10.20;5.00;;;15.60;99.90;;;;;;5079747;28;20040;-82
2023/09/20 04:05:10;;;;;;;10.98;5.38;;;15.60;99.90;;;;;;5063391;28;20045;-82
2023/09/20 04:07:37;;;;;;;12.57;4.88;;;15.50;99.90;;;;;;5066986;28;20032;-82
2023/09/20 04:10:03;;;;;;;12.25;5.45;;;15.50;99.90;;;;;;5075883;28;20490;-81
2023/09/20 04:12:28;;;;;;;11.57;4.93;;;15.50;99.90;;;;;;5065504;28;20044;-81
2023/09/20 04:14:54;;;;;;;10.95;4.90;;;15.50;99.90;;;;;;5063317;28;20044;-82
2023/09/20 04:17:25;;;;;;;9.98;5.30;;;15.40;99.90;;;;;;5062035;28;20080;-81
2023/09/20 04:19:51;;;;;;;11.00;5.53;;;15.40;99.90;;;;;;5075596;28;20495;-81
2023/09/20 04:22:17;;;;;;;11.52;5.50;;;15.40;99.90;;;;;;5060657;28;20554;-81
2023/09/20 04:24:43;;;;;;;12.18;5.47;;;15.40;99.90;;;;;;5056265;28;20135;-82
2023/09/20 04:27:08;;;;;;;10.38;4.93;;;15.40;99.90;;;;;;5051372;28;20036;-81
2023/09/20 04:29:35;;;;;;;10.27;4.88;;;15.30;99.90;;;;;;5072050;28;20083;-81
2023/09/20 04:32:01;;;;;;;10.15;4.60;;;15.30;99.90;;;;;;5054692;28;20706;-82
2023/09/20 04:34:27;;;;;;;11.55;5.45;;;15.30;99.90;;;;;;5053952;28;20083;-81
2023/09/20 04:36:52;;;;;;;12.32;4.93;;;15.30;99.90;;;;;;5035004;28;20051;-82
2023/09/20 04:39:20;;;;;;;11.63;5.20;;;15.30;99.90;;;;;;5066910;28;20082;-82
2023/09/20 04:41:45;;;;;;;8.30;5.07;;;15.30;99.90;;;;;;5043908;28;20418;-81
2023/09/20 04:44:13;;;;;;;12.10;4.68;;;15.30;99.90;;;;;;5068009;28;20037;-82
2023/09/20 04:46:39;;;;;;;10.27;4.88;;;15.30;99.90;;;;;;5033863;28;20033;-81
2023/09/20 04:49:06;;;;;;;12.95;5.75;;;15.20;99.90;;;;;;5034929;28;20036;-81
2023/09/20 04:51:32;;;;;;;11.60;5.47;;;15.20;99.90;;;;;;5037132;28;20032;-82
2023/09/20 04:53:58;;;;;;;11.52;5.47;;;15.10;99.90;;;;;;5054599;28;20059;-82
2023/09/20 04:56:27;;;;;;;9.88;5.13;;;15.10;99.90;;;;;;5053916;28;20044;-82
2023/09/20 04:58:53;;;;;;;11.80;5.03;;;15.10;99.90;;;;;;5051413;28;20041;-82
2023/09/20 05:01:19;;;;;;;9.30;4.82;;;15.00;99.90;;;;;;5039882;28;20037;-82
2023/09/20 05:03:45;;;;;;;10.13;4.95;;;15.00;99.90;;;;;;5047407;28;20037;-82
2023/09/20 05:06:10;;;;;;;9.73;5.18;;;15.00;99.90;;;;;;5070866;28;20039;-82
2023/09/20 05:08:39;;;;;;;9.35;5.10;;;15.00;99.90;;;;;;5071174;28;20173;-82
2023/09/20 05:11:04;;;;;;;12.60;5.13;;;14.90;99.90;;;;;;5053572;28;20126;-82
2023/09/20 05:13:30;;;;;;;12.77;5.05;;;14.90;99.90;;;;;;5053189;28;20037;-82
2023/09/20 05:15:56;;;;;;;9.38;4.20;;;14.90;99.90;;;;;;5053551;28;20039;-81
2023/09/20 05:18:21;;;;;;;9.45;4.75;;;14.90;99.90;;;;;;5071141;28;20039;-81
2023/09/20 05:20:48;;;;;;;8.25;4.82;;;14.90;99.90;;;;;;5070316;28;20461;-82
2023/09/20 05:23:14;;;;;;;11.25;4.65;;;14.90;99.90;;;;;;5053478;28;20098;-82
2023/09/20 05:25:39;;;;;;;9.15;5.32;;;14.90;99.90;;;;;;5039715;28;20076;-81
2023/09/20 05:28:05;;;;;;;9.98;4.53;;;14.90;99.90;;;;;;5050123;28;20068;-81
2023/09/20 05:30:32;;;;;;;12.00;5.47;;;14.90;99.90;;;;;;5051893;28;20037;-82
2023/09/20 05:32:58;;;;;;;10.80;4.40;;;14.90;99.90;;;;;;5053983;28;20052;-81
2023/09/20 05:35:25;;;;;;;9.45;4.97;;;14.90;99.90;;;;;;5060266;28;20492;-82
2023/09/20 05:37:52;;;;;;;11.35;4.63;;;14.90;99.90;;;;;;5039123;28;20033;-82
2023/09/20 05:40:17;;;;;;;13.73;4.97;;;14.90;99.90;;;;;;5050805;28;20511;-81
2023/09/20 05:42:46;;;;;;;13.52;4.65;;;14.90;99.90;;;;;;5050749;28;20045;-82
2023/09/20 05:45:13;;;;;;;10.93;4.35;;;15.00;99.90;;;;;;5040226;28;20037;-81
2023/09/20 05:47:43;;;;;;;10.07;4.07;;;15.00;99.90;;;;;;5058163;28;20040;-82
2023/09/20 05:50:14;;;;;;;8.65;4.20;;;15.10;99.90;;;;;;5050943;28;20041;-81
2023/09/20 05:52:41;;;;;;;9.57;4.28;;;15.10;99.90;;;;;;5065342;28;20073;-82
2023/09/20 05:55:11;;;;;;;11.13;4.15;;;15.20;99.90;;;;;;5074309;28;20044;-82
2023/09/20 05:57:38;;;;;;;9.02;4.45;;;15.20;99.90;;;;;;5064694;28;20075;-82
2023/09/20 06:00:05;;;;;;;9.45;4.18;;;15.30;99.90;;;;;;5058980;28;20075;-83
2023/09/20 06:02:30;;;;;;;9.02;4.65;;;15.30;99.90;;;;;;5053829;28;20037;-82
2023/09/20 06:04:56;;;;;;;9.30;4.45;;;15.40;99.90;;;;;;5059146;28;20439;-83
2023/09/20 06:07:21;;;;;;;9.13;4.47;;;15.40;99.90;;;;;;5064941;28;20418;-81
2023/09/20 06:09:47;;;;;;;7.95;4.03;;;15.40;99.90;;;;;;5076119;28;20499;-82
2023/09/20 06:12:13;;;;;;;9.60;4.43;;;15.50;99.90;;;;;;5075971;28;20549;-82
2023/09/20 06:14:38;;;;;;;8.90;4.65;;;15.50;99.90;;;;;;5051666;28;20040;-85
2023/09/20 06:17:04;;;;;;;11.82;4.95;;;15.50;99.90;;;;;;5058503;28;20047;-84
2023/09/20 06:19:29;;;;;;;9.80;4.65;;;15.60;99.90;;;;;;5057572;28;20037;-82
2023/09/20 06:21:55;;;;;;;9.20;4.82;;;15.60;99.90;;;;;;5081831;28;20044;-82
2023/09/20 06:24:21;;;;;;;7.75;4.70;;;15.60;99.90;;;;;;5090408;28;20036;-81
2023/09/20 06:26:46;;;;;;;6.90;4.20;;;15.70;99.90;;;;;;5069256;28;20082;-83
2023/09/20 06:29:13;;;;;;;8.35;4.55;;;15.70;99.90;;;;;;5079647;28;20040;-83
2023/09/20 06:31:38;;;;;;;9.85;4.63;;;15.70;99.90;;;;;;5075217;28;20032;-80
2023/09/20 06:34:04;;;;;;;9.57;4.78;;;15.70;99.90;;;;;;5074216;28;20409;-83
2023/09/20 06:36:30;;;;;;;6.80;3.90;;;15.80;99.90;;;;;;5074342;28;20043;-83
2023/09/20 06:38:56;;;;;;;10.60;4.70;;;15.80;99.90;;;;;;5079378;28;20402;-83
2023/09/20 06:41:23;;;;;;;10.88;4.45;;;15.80;99.90;;;;;;5081178;28;20084;-84
2023/09/20 06:43:49;;;;;;;10.57;4.40;;;16.00;99.90;;;;;;5074723;28;20550;-84
2023/09/20 06:46:14;;;;;;;10.90;4.00;;;16.00;99.90;;;;;;5052748;28;20128;-82
2023/09/20 06:48:40;;;;;;;10.95;4.70;;;16.00;99.90;;;;;;5049388;28;20024;-82
2023/09/20 06:51:06;;;;;;;9.32;4.82;;;16.00;99.90;;;;;;5073791;28;20575;-83
2023/09/20 06:53:31;;;;;;;8.70;4.00;;;16.10;99.90;;;;;;5073685;28;20512;-83
2023/09/20 06:56:00;;;;;;;11.73;4.45;;;16.20;99.90;;;;;;5056564;28;20093;-83
2023/09/20 06:58:25;;;;;;;11.45;4.30;;;16.20;99.90;;;;;;5073669;28;20042;-83
2023/09/20 07:00:52;;;;;;;8.93;4.30;;;16.20;99.90;;;;;;5070219;28;20033;-82
2023/09/20 07:03:18;;;;;;;8.63;4.10;;;16.20;99.90;;;;;;5061188;28;20036;-83
2023/09/20 07:05:44;;;;;;;8.45;4.40;;;16.20;99.90;;;;;;5064048;28;20036;-87
2023/09/20 07:08:10;;;;;;;9.63;4.65;;;16.20;99.90;;;;;;5050086;28;20085;-85
2023/09/20 07:10:41;;;;;;;9.98;4.22;;;16.20;99.90;;;;;;5061113;28;20117;-83
2023/09/20 07:13:09;;;;;;;8.57;4.40;;;16.20;99.90;;;;;;5053473;28;20068;-83
2023/09/20 07:15:35;;;;;;;7.18;4.28;;;16.20;99.90;;;;;;5062411;28;20040;-81
2023/09/20 07:18:11;;;;;;;11.25;4.78;;;16.30;99.90;;;;;;5043907;28;20041;-83
2023/09/20 07:20:39;;;;;;;8.52;4.55;;;16.30;99.90;;;;;;5053574;28;20052;-83
2023/09/20 07:23:08;;;;;;;7.93;4.50;;;16.40;99.90;;;;;;5036238;28;20037;-82
2023/09/20 07:25:36;;;;;;;11.57;4.30;;;16.60;99.90;;;;;;5050040;28;20457;-82
2023/09/20 07:28:02;;;;;;;9.85;4.00;;;16.80;99.90;;;;;;5072649;28;20040;-81
2023/09/20 07:30:31;;;;;;;12.88;4.93;;;16.90;99.90;;;;;;5063967;28;20506;-80
2023/09/20 07:32:58;;;;;;;10.20;4.03;;;17.10;99.90;;;;;;5054023;28;20041;-81
2023/09/20 07:35:26;;;;;;;9.48;4.55;;;17.30;99.90;;;;;;5069183;28;20032;-80
2023/09/20 07:37:57;;;;;;;12.15;4.18;;;17.50;99.90;;;;;;5080591;28;20039;-81
2023/09/20 07:40:27;;;;;;;7.50;3.92;;;17.50;99.90;;;;;;5048974;28;20052;-81
2023/09/20 07:42:53;;;;;;;6.93;4.07;;;17.50;99.90;;;;;;5070350;28;20045;-82
2023/09/20 07:45:22;;;;;;;8.98;4.15;;;17.40;99.90;;;;;;5052861;28;20045;-82
2023/09/20 07:47:47;;;;;;;10.27;4.40;;;17.40;99.90;;;;;;5048987;28;20077;-84
2023/09/20 07:50:14;;;;;;;8.07;4.57;;;17.40;99.90;;;;;;5055945;28;20111;-82
2023/09/20 07:52:40;;;;;;;9.15;4.43;;;17.40;99.90;;;;;;5055906;28;20043;-83
2023/09/20 07:55:08;;;;;;;8.95;4.20;;;17.50;99.90;;;;;;5072215;28;20040;-83
2023/09/20 07:57:42;;;;;;;7.25;4.07;;;17.60;99.90;;;;;;5081359;22;20049;-85
2023/09/20 08:00:22;;;;;;;7.38;4.18;;;17.60;99.90;;;;;;5031457;28;20558;-82
2023/09/20 08:03:01;;;;;;;8.00;4.20;;;17.70;99.90;;;;;;5009732;28;20056;-87
2023/09/20 08:05:55;;;;;;;;;;;;;;;;;;;;;
2023/09/20 08:12:57;;;;;;;10.48;3.97;;;17.60;99.90;;;;;;5032803;28;20048;-87
2023/09/20 08:16:14;;;;;;;;;;;;;;;;;;;;;
2023/09/20 08:21:39;;;;;;;11.02;4.70;;;17.40;99.90;;;;;;5034332;28;20470;-83
2023/09/20 09:01:19;;;;;;;7.20;4.03;;;17.70;99.90;;;;;;5098881;28;20122;-82
2023/09/20 09:04:08;;;;;;;5.65;3.97;;;17.80;99.90;;;;;;5107913;28;20044;-83
2023/09/20 09:10:07;;;;;;;7.47;3.60;;;17.70;99.90;;;;;;5033781;28;20084;-82
2023/09/20 09:12:51;;;;;;;6.53;3.20;;;17.70;99.90;;;;;;5037802;28;20072;-82
2023/09/20 09:15:31;;;;;;;6.55;3.78;;;17.70;99.90;;;;;;5023684;28;20041;-82
2023/09/20 09:18:32;;;;;;;5.32;3.08;;;17.80;99.90;;;;;;5003853;28;20499;-84
2023/09/20 09:21:18;;;;;;;6.38;3.22;;;17.90;99.90;;;;;;5021175;28;20056;-83
2023/09/20 09:23:46;;;;;;;5.80;3.00;;;18.00;99.90;;;;;;5059327;23;20032;-83
2023/09/20 09:26:16;;;;;;;6.32;2.97;;;18.00;99.90;;;;;;5074825;28;20092;-84
2023/09/20 09:28:44;;;;;;;6.50;3.20;;;18.10;99.90;;;;;;5050808;28;20049;-82
2023/09/20 09:31:09;;;;;;;4.47;2.58;;;18.20;99.90;;;;;;5051083;28;20040;-83
2023/09/20 09:33:37;;;;;;;5.00;3.10;;;18.30;99.90;;;;;;5062875;28;20032;-83
2023/09/20 09:36:06;;;;;;;6.20;3.20;;;18.50;99.90;;;;;;5074014;28;20084;-84
2023/09/20 09:38:34;;;;;;;4.80;2.92;;;18.60;99.90;;;;;;5091125;28;20058;-83
2023/09/20 09:41:01;;;;;;;5.22;2.75;;;18.60;99.90;;;;;;5090892;28;20039;-83
2023/09/20 09:43:31;;;;;;;4.95;2.72;;;18.70;99.90;;;;;;5090918;28;20082;-83
2023/09/20 09:46:08;;;;;;;5.40;2.67;;;18.70;99.90;;;;;;5073856;28;20458;-84
2023/09/20 09:48:38;;;;;;;5.70;2.72;;;18.70;99.90;;;;;;5072302;28;20119;-84
2023/09/20 09:51:06;;;;;;;7.25;2.70;;;18.60;99.90;;;;;;5060154;28;20098;-85
2023/09/20 09:53:35;;;;;;;5.47;2.40;;;18.70;99.90;;;;;;5033950;28;20132;-83
2023/09/20 09:56:04;;;;;;;7.10;2.70;;;18.60;99.90;;;;;;5050321;28;20041;-82
2023/09/20 09:58:29;;;;;;;4.03;2.38;;;18.60;99.90;;;;;;5050556;28;20044;-83
2023/09/20 10:00:57;;;;;;;4.97;2.42;;;18.60;99.90;;;;;;5053769;28;20472;-84
2023/09/20 10:03:32;;;;;;;5.55;2.65;;;18.50;99.90;;;;;;5074410;28;20067;-83
2023/09/20 10:06:21;;;;;;;4.97;2.78;;;18.50;99.90;;;;;;5089188;28;20051;-83
2023/09/20 10:08:53;;;;;;;4.40;2.70;;;18.50;99.90;;;;;;5078174;28;20515;-82
2023/09/20 10:11:22;;;;;;;6.15;3.22;;;18.50;99.90;;;;;;5094792;28;20036;-84
2023/09/20 10:13:50;;;;;;;5.68;2.70;;;18.50;99.90;;;;;;5077863;28;20541;-83
2023/09/20 10:16:16;;;;;;;5.72;2.40;;;18.50;99.90;;;;;;5075733;28;20453;-84
2023/09/20 10:19:07;;;;;;;7.88;2.83;;;18.50;99.90;;;;;;5069314;28;20050;-83
2023/09/20 10:21:33;;;;;;;4.80;2.50;;;18.50;99.90;;;;;;5077745;28;20057;-82
2023/09/20 10:24:17;;;;;;;5.28;2.60;;;18.50;99.90;;;;;;5094536;28;20036;-83
2023/09/20 10:26:43;;;;;;;5.15;2.63;;;18.50;99.90;;;;;;5057090;28;20036;-83
2023/09/20 10:29:31;;;;;;;6.03;2.67;;;18.50;99.90;;;;;;5090326;28;20379;-86
2023/09/20 10:32:19;;;;;;;5.05;2.60;;;18.50;99.90;;;;;;5094604;28;20113;-82
2023/09/20 10:35:31;;;;;;;5.22;2.40;;;18.50;99.90;;;;;;5094199;28;20044;-84
2023/09/20 10:38:08;;;;;;;4.90;2.47;;;18.50;99.90;;;;;;5075137;28;20154;-83
2023/09/20 10:40:47;;;;;;;6.00;2.67;;;18.40;99.90;;;;;;5054916;28;20045;-82
2023/09/20 10:43:22;;;;;;;4.63;2.60;;;18.50;99.90;;;;;;5054113;28;20056;-83
2023/09/20 10:45:51;;;;;;;7.43;2.53;;;18.50;99.90;;;;;;5053620;28;20106;-82
2023/09/20 10:48:26;;;;;;;4.80;2.65;;;18.60;99.90;;;;;;5058714;28;20406;-84
2023/09/20 10:50:59;;;;;;;7.53;2.67;;;18.60;99.90;;;;;;5069008;28;20505;-83
2023/09/20 10:53:55;;;;;;;5.03;2.50;;;18.60;99.90;;;;;;5093963;28;20036;-83
2023/09/20 10:56:50;;;;;;;4.55;2.20;;;18.60;99.90;;;;;;5093753;28;20498;-82
2023/09/20 10:59:16;;;;;;;5.18;2.63;;;18.60;99.90;;;;;;5069555;28;20111;-81
2023/09/20 11:01:58;;;;;;;5.55;2.58;;;18.50;99.90;;;;;;5066355;28;20032;-83
2023/09/20 11:04:30;;;;;;;6.95;2.83;;;18.60;99.90;;;;;;5066377;28;20033;-85
2023/09/20 11:06:59;;;;;;;5.78;3.00;;;18.60;99.90;;;;;;5071876;28;20124;-85
2023/09/20 11:09:30;;;;;;;4.00;2.40;;;18.60;99.90;;;;;;5072749;28;20429;-83
2023/09/20 11:12:03;;;;;;;4.63;2.33;;;18.60;99.90;;;;;;5071810;28;20506;-84
2023/09/20 11:14:33;;;;;;;;;;;18.70;99.90;;;;;;5082007;28;20044;-86
2023/09/20 11:16:59;;;;;;;5.50;2.72;;;18.80;99.90;;;;;;5073217;28;19920;-83
2023/09/20 11:19:26;;;;;;;4.35;2.72;;;18.90;99.90;;;;;;5073319;28;20048;-83
2023/09/20 11:21:52;;;;;;;4.47;2.92;;;18.90;99.90;;;;;;5072346;28;20040;-83
2023/09/20 11:24:19;;;;;;;6.05;2.70;;;19.00;99.90;;;;;;5064573;28;20047;-86
2023/09/20 11:26:47;;;;;;;3.63;3.00;;;19.10;99.90;;;;;;5072928;28;20052;-83
2023/09/20 11:29:15;;;;;;;5.53;3.10;;;19.10;99.90;;;;;;5073307;28;20119;-85
2023/09/20 11:31:44;;;;;;;6.60;3.30;;;19.20;99.90;;;;;;5073032;28;20040;-84
2023/09/20 11:34:10;;;;;;;5.47;2.70;;;19.60;99.90;;;;;;5073105;28;20069;-83
2023/09/20 11:36:38;;;;;;;5.32;2.65;;;19.80;99.90;;;;;;5059201;28;20520;-83
2023/09/20 11:39:05;;;;;;;5.43;3.15;;;20.20;99.90;;;;;;5062582;28;20143;-84
2023/09/20 11:41:32;;;;;;;6.53;3.22;;;20.40;99.90;;;;;;5036317;28;20052;-85
2023/09/20 11:43:58;;;;;;;5.82;3.10;;;20.60;99.90;;;;;;5052702;28;20548;-85
2023/09/20 11:46:30;;;;;;;6.03;3.17;;;20.70;99.90;;;;;;5052949;28;20045;-85
2023/09/20 11:48:58;;;;;;;5.07;3.40;;;20.80;99.90;;;;;;5053456;28;20032;-84
2023/09/20 11:51:25;;;;;;;6.00;3.60;;;20.80;99.90;;;;;;5074293;28;20040;-83
2023/09/20 11:53:51;;;;;;;7.63;5.88;;;20.80;99.90;;;;;;5092641;28;20036;-84
2023/09/20 11:56:30;;;;;;;6.82;4.60;;;20.70;99.90;;;;;;5092614;28;20040;-85
2023/09/20 11:59:01;;;;;;;8.77;4.40;;;20.60;99.90;;;;;;5076025;28;20478;-85
2023/09/20 12:01:30;;;;;;;7.70;5.30;;;20.40;99.90;;;;;;5079870;28;20029;-84
2023/09/20 12:03:56;;;;;;;7.90;5.05;;;20.40;99.90;;;;;;5047035;28;20079;-84
2023/09/20 12:06:24;;;;;;;7.40;4.28;;;20.60;99.90;;;;;;5071954;28;20053;-84
2023/09/20 12:08:54;;;;;;;7.32;3.55;;;21.00;99.90;;;;;;5072334;28;20048;-84
2023/09/20 12:11:20;;;;;;;6.03;4.30;;;21.30;99.90;;;;;;5072657;28;20483;-85
2023/09/20 12:13:47;;;;;;;6.88;4.90;;;21.30;99.90;;;;;;5054938;28;20040;-84
2023/09/20 12:16:14;;;;;;;7.72;4.75;;;21.40;99.90;;;;;;5080259;28;20051;-84
2023/09/20 12:18:41;;;;;;;6.72;4.18;;;21.40;99.90;;;;;;5055797;28;20044;-85
2023/09/20 12:21:08;;;;;;;7.18;4.70;;;21.30;99.90;;;;;;5072113;28;20047;-85
2023/09/20 12:23:39;;;;;;;8.23;3.72;;;21.40;99.90;;;;;;5054484;28;20408;-84
2023/09/20 12:26:05;;;;;;;7.22;4.50;;;21.50;99.90;;;;;;5071054;28;20068;-84
2023/09/20 12:28:31;;;;;;;6.47;3.75;;;21.40;99.90;;;;;;5069859;28;20044;-83
2023/09/20 12:30:58;;;;;;;5.95;3.90;;;21.30;99.90;;;;;;5051886;28;20041;-82
2023/09/20 12:33:27;;;;;;;5.82;3.88;;;21.20;99.90;;;;;;5068977;28;20041;-84
2023/09/20 12:35:59;;;;;;;5.13;3.70;;;21.10;99.90;;;;;;5061033;28;20085;-83
2023/09/20 12:38:29;;;;;;;5.05;3.78;;;21.10;99.90;;;;;;5072019;28;20049;-84
2023/09/20 12:40:57;;;;;;;6.40;3.90;;;21.00;99.90;;;;;;5071877;28;20040;-84
2023/09/20 12:43:23;;;;;;;6.28;3.33;;;20.80;99.90;;;;;;5072199;28;20040;-85
2023/09/20 12:45:53;;;;;;;7.50;3.80;;;20.90;99.90;;;;;;5064874;28;20110;-85
2023/09/20 12:48:19;;;;;;;6.50;3.25;;;21.30;99.90;;;;;;5034903;28;20043;-84
2023/09/20 12:50:46;;;;;;;5.35;2.95;;;21.60;99.90;;;;;;5051479;28;20033;-84
2023/09/20 12:53:12;;;;;;;4.60;3.00;;;21.90;99.90;;;;;;5075653;28;20040;-83
2023/09/20 12:55:39;;;;;;;4.35;3.00;;;22.00;99.90;;;;;;5051436;28;20045;-84
2023/09/20 12:58:10;;;;;;;6.53;2.90;;;22.10;99.90;;;;;;5065513;28;20061;-84
2023/09/20 13:00:36;;;;;;;5.68;2.88;;;22.10;99.90;;;;;;5068852;28;20038;-84
2023/09/20 13:03:05;;;;;;;6.35;3.55;;;22.00;99.90;;;;;;5061175;28;20044;-82
2023/09/20 13:05:31;;;;;;;5.32;3.72;;;22.00;99.90;;;;;;5051274;28;20068;-83
2023/09/20 13:07:57;;;;;;;6.55;4.72;;;22.00;99.90;;;;;;5034702;28;20069;-85
2023/09/20 13:10:23;;;;;;;5.82;3.55;;;21.90;99.90;;;;;;5061983;28;20369;-83
2023/09/20 13:12:49;;;;;;;6.40;3.60;;;21.90;99.90;;;;;;5077678;28;20085;-85
2023/09/20 13:15:17;;;;;;;5.68;3.17;;;22.00;99.90;;;;;;5054218;28;20083;-84
2023/09/20 13:17:44;;;;;;;9.40;3.92;;;22.00;99.90;;;;;;5071008;28;20538;-84
2023/09/20 13:20:15;;;;;;;10.57;3.05;;;22.00;99.90;;;;;;5054411;28;20079;-83
2023/09/20 13:22:42;;;;;;;6.88;3.08;;;21.90;99.90;;;;;;5054110;28;20033;-85
2023/09/20 13:25:08;;;;;;;6.10;3.28;;;21.80;99.90;;;;;;5075209;28;20032;-85
2023/09/20 13:27:38;;;;;;;7.00;3.63;;;21.60;99.90;;;;;;5051978;28;20045;-86
2023/09/20 13:30:08;;;;;;;8.13;4.18;;;21.50;99.90;;;;;;5034729;28;20033;-84
2023/09/20 13:32:35;;;;;;;6.55;3.50;;;21.40;99.90;;;;;;5050828;28;20406;-85
2023/09/20 13:35:02;;;;;;;5.65;3.03;;;21.40;99.90;;;;;;5050388;28;20056;-85
2023/09/20 13:37:28;;;;;;;4.50;2.80;;;21.30;99.90;;;;;;5051076;28;20391;-85
2023/09/20 13:39:54;;;;;;;4.75;2.47;;;21.20;99.90;;;;;;5047483;28;20040;-84
2023/09/20 13:42:20;;;;;;;7.50;2.75;;;21.10;99.90;;;;;;5062949;28;20140;-85
2023/09/20 13:44:50;;;;;;;4.93;2.85;;;21.10;99.90;;;;;;5073763;28;20498;-83